Time;durP1;ratioP1;P1;durP2;ratioP2;P2;SDS_P1;SDS_P2;PMS_P1;PMS_P2;Temp;Humidity;BMP_temperature;BMP_pressure;BME280_temperature;BME280_humidity;BME280_pressure;Samples;Min_cycle;Max_cycle;Signal;HPM_P1;HPM_P2
2023/12/24 00:02:10;;;;;;;79.55;31.90;;;;;;;;;;5098315;27;20396;-71
2023/12/24 00:05:15;;;;;;;80.60;32.13;;;;;;;;;;5050675;28;20036;-72
2023/12/24 00:08:19;;;;;;;75.65;29.33;;;;;;;;;;5097264;27;20391;-71
2023/12/24 00:11:23;;;;;;;85.28;32.85;;;;;;;;;;5097828;27;20036;-72
2023/12/24 00:14:27;;;;;;;85.53;34.88;;;;;;;;;;5050343;28;20400;-72
2023/12/24 00:17:32;;;;;;;82.10;33.78;;;;;;;;;;5050084;28;20055;-72
2023/12/24 00:20:36;;;;;;;86.13;34.60;;;;;;;;;;5050490;28;20388;-71
2023/12/24 00:23:42;;;;;;;79.90;33.78;;;;;;;;;;5050491;28;20523;-72
2023/12/24 00:26:46;;;;;;;89.75;36.95;;;;;;;;;;5050129;28;20048;-71
2023/12/24 00:29:50;;;;;;;101.50;35.65;;;;;;;;;;5085593;28;20048;-71
2023/12/24 00:32:55;;;;;;;94.43;36.08;;;;;;;;;;5049936;28;20048;-70
2023/12/24 00:36:00;;;;;;;82.47;36.60;;;;;;;;;;5049820;28;20060;-71
2023/12/24 00:39:04;;;;;;;85.28;38.00;;;;;;;;;;5050148;28;20511;-71
2023/12/24 00:42:08;;;;;;;91.85;39.38;;;;;;;;;;5049527;28;20051;-72
2023/12/24 00:45:13;;;;;;;104.05;39.78;;;;;;;;;;5097254;27;20507;-72
2023/12/24 00:48:17;;;;;;;95.57;40.05;;;;;;;;;;5097443;27;20047;-72
2023/12/24 00:51:22;;;;;;;90.05;42.25;;;;;;;;;;5049611;28;20063;-70
2023/12/24 00:54:27;;;;;;;101.45;42.13;;;;;;;;;;5049554;28;20044;-72
2023/12/24 00:57:31;;;;;;;108.38;43.88;;;;;;;;;;5049503;28;20048;-70
2023/12/24 01:00:36;;;;;;;104.72;43.92;;;;;;;;;;5096294;27;20044;-70
2023/12/24 01:03:41;;;;;;;95.45;42.15;;;14.10;99.90;;;;;;5049362;28;20048;-72
2023/12/24 01:06:46;;;;;;;88.65;41.28;;;;;;;;;;5049510;28;20056;-71
2023/12/24 01:09:51;;;;;;;85.55;38.38;;;;;;;;;;5097238;27;20065;-71
2023/12/24 01:12:55;;;;;;;97.78;39.40;;;;;;;;;;5049517;28;20048;-71
2023/12/24 01:16:01;;;;;;;106.00;40.45;;;15.50;99.90;;;;;;5049158;28;20211;-71
2023/12/24 01:19:05;;;;;;;92.18;39.08;;;;;;;;;;5049342;28;20053;-71
2023/12/24 01:22:10;;;;;;;91.22;38.53;;;;;;;;;;5097180;27;20503;-71
2023/12/24 01:25:14;;;;;;;88.80;39.50;;;;;;;;;;5049184;28;20052;-71
2023/12/24 01:28:18;;;;;;;91.72;41.20;;;;;;;;;;5085207;27;20507;-73
2023/12/24 01:31:22;;;;;;;84.05;41.60;;;;;;;;;;5048935;28;20529;-71
2023/12/24 01:34:27;;;;;;;90.28;40.17;;;;;;;;;;5049011;28;20039;-71
2023/12/24 01:37:31;;;;;;;102.43;41.80;;;;;;;;;;5096479;27;20055;-71
2023/12/24 01:40:36;;;;;;;87.25;42.10;;;;;;;;;;5049154;28;20036;-71
2023/12/24 01:43:43;;;;;;;94.85;41.22;;;14.90;99.90;;;;;;5049083;28;20047;-71
2023/12/24 01:46:47;;;;;;;108.63;40.83;;;;;;;;;;5096762;27;20063;-71
2023/12/24 01:49:52;;;;;;;89.05;41.20;;;;;;;;;;5048763;28;20044;-71
2023/12/24 01:52:57;;;;;;;89.70;39.70;;;;;;;;;;5049004;28;20044;-71
2023/12/24 01:56:05;;;;;;;102.68;39.38;;;14.10;99.90;;;;;;5095938;27;20522;-71
2023/12/24 01:59:09;;;;;;;80.80;38.72;;;;;;;;;;5096613;27;20052;-70
2023/12/24 02:02:14;;;;;;;86.38;38.72;;;;;;;;;;5096458;27;20538;-71
2023/12/24 02:05:19;;;;;;;84.88;40.20;;;;;;;;;;5096590;27;20048;-71
2023/12/24 02:08:23;;;;;;;84.72;38.85;;;;;;;;;;5096425;27;20048;-71
2023/12/24 02:11:27;;;;;;;92.70;39.03;;;;;;;;;;5048747;28;20044;-72
2023/12/24 02:14:32;;;;;;;88.65;38.72;;;;;;;;;;5096172;27;20043;-71
2023/12/24 02:17:36;;;;;;;82.95;36.55;;;;;;;;;;5048286;28;20056;-71
2023/12/24 02:20:40;;;;;;;91.18;36.60;;;;;;;;;;5096040;27;20040;-71
2023/12/24 02:23:45;;;;;;;79.45;32.13;;;;;;;;;;5048505;28;20048;-72
2023/12/24 02:27:06;;;;;;;73.63;27.75;;;14.00;99.90;;;;;;5084428;28;20043;-71
2023/12/24 02:30:25;;;;;;;62.10;22.93;;;14.10;99.90;;;;;;5048182;28;20499;-71
2023/12/24 02:33:33;;;;;;;61.78;19.38;;;13.80;99.90;;;;;;5095321;28;20263;-71
2023/12/24 02:36:37;;;;;;;58.42;16.90;;;;;;;;;;5048027;28;20064;-71
2023/12/24 02:39:42;;;;;;;45.78;13.27;;;;;;;;;;5096207;28;20044;-71
2023/12/24 02:42:46;;;;;;;57.47;11.70;;;;;;;;;;5048439;28;20048;-71
2023/12/24 02:45:51;;;;;;;55.97;10.75;;;;;;;;;;5048009;28;20036;-72
2023/12/24 02:48:55;;;;;;;43.30;9.05;;;;;;;;;;5048075;28;20503;-71
2023/12/24 02:52:00;;;;;;;49.83;9.60;;;;;;;;;;5098244;28;20377;-71
2023/12/24 02:55:05;;;;;;;49.80;9.43;;;;;;;;;;5048736;28;20041;-71
2023/12/24 02:58:09;;;;;;;41.38;8.82;;;;;;;;;;5048822;28;20055;-71
2023/12/24 03:01:13;;;;;;;46.08;11.48;;;;;;;;;;5096088;28;20046;-71
2023/12/24 03:04:18;;;;;;;47.50;9.90;;;;;;;;;;5048262;28;20052;-71
2023/12/24 03:07:22;;;;;;;47.60;9.93;;;;;;;;;;5047873;28;20037;-71
2023/12/24 03:10:26;;;;;;;45.20;9.10;;;;;;;;;;5047966;28;20041;-71
2023/12/24 03:13:31;;;;;;;45.80;9.95;;;;;;;;;;5047912;28;20041;-70
2023/12/24 03:16:35;;;;;;;60.95;9.20;;;;;;;;;;5071866;28;20066;-70
2023/12/24 03:19:40;;;;;;;54.83;9.77;;;;;;;;;;5047651;28;20037;-71
2023/12/24 03:22:44;;;;;;;46.88;8.25;;;;;;;;;;5047999;28;20033;-71
2023/12/24 03:25:48;;;;;;;44.92;8.55;;;;;;;;;;5095733;28;20048;-71
2023/12/24 03:28:52;;;;;;;56.72;8.95;;;;;;;;;;5047717;28;20036;-71
2023/12/24 03:31:56;;;;;;;40.15;8.43;;;;;;;;;;5047239;28;20049;-71
2023/12/24 03:35:01;;;;;;;48.83;8.82;;;;;;;;;;5047692;28;20041;-71
2023/12/24 03:38:05;;;;;;;44.80;7.68;;;;;;;;;;5047394;28;20037;-71
2023/12/24 03:41:09;;;;;;;42.50;7.63;;;;;;;;;;5094998;28;20049;-70
2023/12/24 03:44:14;;;;;;;49.47;8.35;;;;;;;;;;5095818;27;20041;-71
2023/12/24 03:47:18;;;;;;;34.60;7.47;;;;;;;;;;5098430;27;20041;-72
2023/12/24 03:50:22;;;;;;;35.67;7.63;;;;;;;;;;5050457;28;20495;-72
2023/12/24 03:53:28;;;;;;;48.30;8.55;;;;;;;;;;5098523;27;20377;-71
2023/12/24 03:56:32;;;;;;;41.15;8.40;;;;;;;;;;5098395;27;20052;-71
2023/12/24 03:59:39;;;;;;;46.28;7.50;;;15.70;99.90;;;;;;5050781;28;20369;-72
2023/12/24 04:02:43;;;;;;;43.85;7.30;;;;;;;;;;5098102;27;20040;-72
2023/12/24 04:05:47;;;;;;;32.20;6.05;;;;;;;;;;5050490;28;20491;-71
2023/12/24 04:08:52;;;;;;;44.20;6.88;;;;;;;;;;5086922;28;20037;-73
2023/12/24 04:11:56;;;;;;;35.58;7.45;;;;;;;;;;5050110;28;20350;-71
2023/12/24 04:15:01;;;;;;;40.50;6.78;;;;;;;;;;5050420;28;20040;-70
2023/12/24 04:18:06;;;;;;;37.75;6.60;;;;;;;;;;5050178;28;20052;-72
2023/12/24 04:21:10;;;;;;;37.80;6.40;;;;;;;;;;5097871;27;20525;-72
2023/12/24 04:24:15;;;;;;;45.38;8.30;;;;;;;;;;5098240;27;20033;-72
2023/12/24 04:27:19;;;;;;;41.17;7.97;;;;;;;;;;5098426;27;20033;-72
2023/12/24 04:30:24;;;;;;;37.58;6.88;;;;;;;;;;5086223;28;20052;-72
2023/12/24 04:33:29;;;;;;;43.92;8.60;;;12.70;99.90;;;;;;5097891;27;20040;-72
2023/12/24 04:36:34;;;;;;;42.45;7.80;;;;;;;;;;5049917;28;20060;-70
2023/12/24 04:39:41;;;;;;;39.67;7.55;;;;;;;;;;5097704;27;20044;-71
2023/12/24 04:42:45;;;;;;;31.45;6.80;;;;;;;;;;5097690;27;20041;-71
2023/12/24 04:45:50;;;;;;;41.35;7.25;;;;;;;;;;5097826;27;20049;-71
2023/12/24 04:48:57;;;;;;;35.60;7.45;;;;;;;;;;5098105;27;20044;-71
2023/12/24 04:52:02;;;;;;;29.60;7.03;;;;;;;;;;5085590;27;20507;-72
2023/12/24 04:55:07;;;;;;;34.70;7.22;;;;;;;;;;5096474;27;20044;-70
2023/12/24 04:58:11;;;;;;;40.05;7.43;;;;;;;;;;5097043;27;20397;-71
2023/12/24 05:01:19;;;;;;;36.75;6.70;;;;;;;;;;5097060;27;20042;-70
2023/12/24 05:04:26;;;;;;;47.22;8.80;;;;;;;;;;5097398;27;20557;-71
2023/12/24 05:07:31;;;;;;;41.40;8.45;;;;;;;;;;5049363;28;20040;-71
2023/12/24 05:10:35;;;;;;;41.08;8.32;;;;;;;;;;5049386;28;20037;-72
2023/12/24 05:13:40;;;;;;;41.10;8.57;;;;;;;;;;5049234;28;20401;-71
2023/12/24 05:16:45;;;;;;;33.30;7.18;;;;;;;;;;5096425;27;20048;-71
2023/12/24 05:19:50;;;;;;;35.15;7.13;;;;;;;;;;5096905;27;20113;-72
2023/12/24 05:22:54;;;;;;;52.95;8.65;;;;;;;;;;5049113;28;20403;-72
2023/12/24 05:25:58;;;;;;;41.88;8.05;;;;;;;;;;5096577;27;20037;-72
2023/12/24 05:29:03;;;;;;;44.25;8.27;;;;;;;;;;5048865;28;20041;-72
2023/12/24 05:32:07;;;;;;;41.83;7.38;;;;;;;;;;5048738;28;20033;-72
2023/12/24 05:35:12;;;;;;;44.60;8.35;;;;;;;;;;5048790;28;20416;-72
2023/12/24 05:38:16;;;;;;;42.55;7.68;;;;;;;;;;5048704;28;20067;-72
2023/12/24 05:41:21;;;;;;;39.63;8.60;;;;;;;;;;5084352;28;20040;-72
2023/12/24 05:44:25;;;;;;;44.20;7.13;;;;;;;;;;5096067;27;20393;-72
2023/12/24 05:47:29;;;;;;;46.03;7.72;;;;;;;;;;5096554;27;20044;-71
2023/12/24 05:50:33;;;;;;;46.80;8.73;;;;;;;;;;5048704;28;20037;-71
2023/12/24 05:53:38;;;;;;;49.50;9.48;;;;;;;;;;5084908;28;20049;-71
2023/12/24 05:56:42;;;;;;;41.42;9.40;;;;;;;;;;5048793;28;20436;-71
2023/12/24 05:59:46;;;;;;;38.03;8.10;;;;;;;;;;5048960;28;20033;-71
2023/12/24 06:02:51;;;;;;;47.78;9.00;;;13.80;99.90;;;;;;5049052;28;20041;-70
2023/12/24 06:05:56;;;;;;;48.53;8.85;;;;;;;;;;5048743;28;20048;-70
2023/12/24 06:09:00;;;;;;;49.60;10.90;;;;;;;;;;5048712;28;20040;-71
2023/12/24 06:12:04;;;;;;;48.40;9.73;;;;;;;;;;5048281;28;20044;-71
2023/12/24 06:15:09;;;;;;;37.55;9.18;;;;;;;;;;5048439;28;20063;-72
2023/12/24 06:18:16;;;;;;;44.70;9.32;;;;;;;;;;5048287;28;20053;-71
2023/12/24 06:21:22;;;;;;;44.67;9.55;;;;;;;;;;5048219;28;20041;-72
2023/12/24 06:24:26;;;;;;;45.33;8.48;;;;;;;;;;5048158;28;20037;-72
2023/12/24 06:27:31;;;;;;;40.90;8.75;;;;;;;;;;5048152;28;20044;-70
2023/12/24 06:30:35;;;;;;;54.13;9.90;;;;;;;;;;5048389;28;20052;-71
2023/12/24 06:33:39;;;;;;;45.85;9.38;;;;;;;;;;5048031;28;20037;-71
2023/12/24 06:36:44;;;;;;;45.83;8.50;;;;;;;;;;5048167;28;20056;-71
2023/12/24 06:39:48;;;;;;;42.33;9.45;;;;;;;;;;5048208;28;20040;-71
2023/12/24 06:42:52;;;;;;;44.10;9.40;;;;;;;;;;5096001;28;20366;-70
2023/12/24 06:45:56;;;;;;;49.88;10.50;;;;;;;;;;5095562;28;20119;-71
2023/12/24 06:49:01;;;;;;;50.22;10.00;;;;;;;;;;5048073;28;20056;-71
2023/12/24 06:52:05;;;;;;;55.42;9.75;;;;;;;;;;5047831;28;20048;-71
2023/12/24 06:55:09;;;;;;;41.83;10.00;;;;;;;;;;5048340;28;20052;-71
2023/12/24 06:58:14;;;;;;;51.72;10.63;;;;;;;;;;5048325;28;20056;-71
2023/12/24 07:01:18;;;;;;;50.38;11.15;;;;;;;;;;5048090;28;20048;-72
2023/12/24 07:04:22;;;;;;;54.47;11.85;;;;;;;;;;5048001;28;20040;-72
2023/12/24 07:07:27;;;;;;;42.05;9.90;;;;;;;;;;5047862;28;20044;-71
2023/12/24 07:10:31;;;;;;;56.50;11.73;;;;;;;;;;5048166;28;20052;-72
2023/12/24 07:13:35;;;;;;;42.42;10.00;;;;;;;;;;5047798;28;20498;-70
2023/12/24 07:16:40;;;;;;;48.05;9.73;;;;;;;;;;5047737;28;20056;-72
2023/12/24 07:19:44;;;;;;;51.50;10.65;;;;;;;;;;5050755;28;20572;-71
2023/12/24 07:22:48;;;;;;;40.28;9.90;;;;;;;;;;5050948;28;20048;-74
2023/12/24 07:25:53;;;;;;;46.63;10.95;;;;;;;;;;5051078;28;20037;-71
2023/12/24 07:28:57;;;;;;;63.67;14.30;;;;;;;;;;5050882;28;20036;-72
2023/12/24 07:32:02;;;;;;;45.33;10.32;;;;;;;;;;5098527;27;20048;-71
2023/12/24 07:35:06;;;;;;;57.25;12.88;;;;;;;;;;5050844;28;20040;-72
2023/12/24 07:38:11;;;;;;;53.80;13.00;;;;;;;;;;5086323;28;20076;-70
2023/12/24 07:41:15;;;;;;;57.22;13.02;;;;;;;;;;5098461;27;20036;-71
2023/12/24 07:44:19;;;;;;;55.30;13.38;;;;;;;;;;5051203;28;20048;-71
2023/12/24 07:47:24;;;;;;;51.60;13.05;;;;;;;;;;5051071;28;20056;-71
2023/12/24 07:50:29;;;;;;;62.80;13.48;;;13.70;99.90;;;;;;5050909;28;20040;-72
2023/12/24 07:53:33;;;;;;;60.65;14.10;;;;;;;;;;5050563;28;20043;-71
2023/12/24 07:56:37;;;;;;;48.20;13.52;;;;;;;;;;5050605;28;20060;-71
2023/12/24 07:59:42;;;;;;;57.85;13.68;;;;;;;;;;5098129;27;20052;-71
2023/12/24 08:02:46;;;;;;;47.97;12.25;;;;;;;;;;5051177;28;20041;-72
2023/12/24 08:05:51;;;;;;;54.33;12.35;;;;;;;;;;5050952;28;20620;-71
2023/12/24 08:08:58;;;;;;;55.53;11.85;;;13.90;99.90;;;;;;5050919;28;20044;-72
2023/12/24 08:12:04;;;;;;;50.88;11.23;;;;;;;;;;5050833;28;20040;-70
2023/12/24 08:15:08;;;;;;;50.35;11.77;;;;;;;;;;5050614;28;20091;-71
2023/12/24 08:18:13;;;;;;;44.58;11.90;;;;;;;;;;5050259;28;20523;-71
2023/12/24 08:21:17;;;;;;;48.47;11.73;;;;;;;;;;5050315;28;20040;-72
2023/12/24 08:24:21;;;;;;;49.40;12.07;;;;;;;;;;5098295;27;20499;-72
2023/12/24 08:27:25;;;;;;;53.60;12.25;;;;;;;;;;5098726;27;20396;-70
2023/12/24 08:30:30;;;;;;;60.63;13.90;;;;;;;;;;5049697;28;20052;-72
2023/12/24 08:33:34;;;;;;;53.88;14.05;;;;;;;;;;5050282;28;20056;-71
2023/12/24 08:36:39;;;;;;;53.17;13.15;;;;;;;;;;5050238;28;20052;-72
2023/12/24 08:39:43;;;;;;;48.72;13.52;;;;;;;;;;5050536;28;20044;-71
2023/12/24 08:42:47;;;;;;;52.45;14.15;;;;;;;;;;5097985;27;20155;-71
2023/12/24 08:45:59;;;;;;;50.03;14.98;;;;;;;;;;5050192;28;20056;-71
2023/12/24 08:49:07;;;;;;;57.60;16.88;;;;;;;;;;5097579;27;20036;-71
2023/12/24 08:52:12;;;;;;;55.17;17.30;;;;;;;;;;5050341;28;20157;-71
2023/12/24 08:55:16;;;;;;;59.08;18.85;;;;;;;;;;5050084;28;20044;-72
2023/12/24 08:58:20;;;;;;;56.47;18.98;;;;;;;;;;5049892;28;20395;-73
2023/12/24 09:01:25;;;;;;;54.30;19.30;;;;;;;;;;5049387;28;20038;-68
2023/12/24 09:04:29;;;;;;;60.47;19.27;;;;;;;;;;5049384;28;20040;-70
2023/12/24 09:07:34;;;;;;;68.25;20.85;;;;;;;;;;5049353;28;20041;-68
2023/12/24 09:10:38;;;;;;;52.53;18.05;;;;;;;;;;5049320;28;20395;-68
2023/12/24 09:13:43;;;;;;;58.35;20.13;;;;;;;;;;5049616;28;20500;-69
2023/12/24 09:16:47;;;;;;;47.40;19.48;;;;;;;;;;5048865;28;20063;-68
2023/12/24 09:19:52;;;;;;;58.75;18.98;;;;;;;;;;5048851;28;20036;-71
2023/12/24 09:22:56;;;;;;;40.22;16.27;;;;;;;;;;5049161;28;20048;-72
2023/12/24 09:26:03;;;;;;;49.78;16.95;;;;;;;;;;5097091;27;20044;-69
2023/12/24 09:29:08;;;;;;;38.75;16.13;;;;;;;;;;5049268;28;20048;-72
2023/12/24 09:32:12;;;;;;;34.92;15.68;;;;;;;;;;5096599;27;20048;-70
2023/12/24 09:35:16;;;;;;;46.55;18.50;;;;;;;;;;5049150;28;20048;-71
2023/12/24 09:38:21;;;;;;;42.63;18.50;;;;;;;;;;5048889;28;20515;-69
2023/12/24 09:41:25;;;;;;;47.42;19.65;;;;;;;;;;5048743;28;20044;-70
2023/12/24 09:44:30;;;;;;;41.03;19.63;;;15.20;99.90;;;;;;5049024;28;20044;-68
2023/12/24 09:47:35;;;;;;;31.67;15.35;;;;;;;;;;5048560;28;20044;-69
2023/12/24 09:50:42;;;;;;;33.90;13.98;;;;;;;;;;5048786;28;20052;-70
2023/12/24 09:53:48;;;;;;;35.65;12.68;;;;;;;;;;5047118;28;20448;-68
2023/12/24 09:56:53;;;;;;;26.08;10.48;;;;;;;;;;5045785;28;20052;-68
2023/12/24 09:59:57;;;;;;;28.35;8.90;;;;;;;;;;5046222;28;20048;-69
2023/12/24 10:03:02;;;;;;;27.23;9.38;;;;;;;;;;5046849;28;20049;-68
2023/12/24 10:06:09;;;;;;;32.95;9.73;;;;;;;;;;5046603;28;20056;-69
2023/12/24 10:09:14;;;;;;;27.40;9.88;;;;;;;;;;5047830;28;20029;-67
2023/12/24 10:12:19;;;;;;;31.70;10.57;;;;;;;;;;5048522;28;20377;-71
2023/12/24 10:15:23;;;;;;;28.33;10.60;;;;;;;;;;5048858;28;20048;-71
2023/12/24 10:18:28;;;;;;;39.97;11.68;;;;;;;;;;5083200;28;20521;-71
2023/12/24 10:21:32;;;;;;;31.48;9.85;;;;;;;;;;5046448;28;20044;-73
2023/12/24 10:24:41;;;;;;;28.88;10.27;;;16.40;99.90;;;;;;5048103;28;20053;-70
2023/12/24 10:27:45;;;;;;;46.67;12.80;;;;;;;;;;5048121;28;20048;-72
2023/12/24 10:30:50;;;;;;;31.20;10.15;;;;;;;;;;5095243;27;20060;-71
2023/12/24 10:33:59;;;;;;;45.85;12.50;;;16.00;99.90;;;;;;5048080;28;20044;-71
2023/12/24 10:37:26;;;;;;;32.72;11.43;;;17.30;99.90;;;;;;5047930;28;20234;-71
2023/12/24 10:40:30;;;;;;;27.67;9.35;;;;;;;;;;5095782;28;20422;-71
2023/12/24 10:43:34;;;;;;;25.63;7.28;;;;;;;;;;5047916;28;20041;-71
2023/12/24 10:46:39;;;;;;;26.75;7.78;;;;;;;;;;5048209;28;20033;-72
2023/12/24 10:49:44;;;;;;;24.48;6.68;;;;;;;;;;5096013;28;20048;-73
2023/12/24 10:52:48;;;;;;;20.58;5.53;;;;;;;;;;5048699;28;20540;-72
2023/12/24 10:55:58;;;;;;;22.05;4.90;;;16.40;99.40;;;;;;5051481;28;20045;-73
2023/12/24 10:59:06;;;;;;;19.38;4.70;;;;;;;;;;5051790;28;20262;-71
2023/12/24 11:02:12;;;;;;;20.90;5.00;;;;;;;;;;5051698;28;20042;-71
2023/12/24 11:05:42;;;;;;;15.57;4.78;;;16.80;99.70;;;;;;5051736;28;20165;-72
2023/12/24 11:08:46;;;;;;;19.80;4.78;;;;;;;;;;5099528;27;20048;-71
2023/12/24 11:11:54;;;;;;;29.70;6.82;;;16.60;99.50;;;;;;5051248;28;20051;-71
2023/12/24 11:14:59;;;;;;;21.33;4.70;;;;;;;;;;5051451;28;20052;-72
2023/12/24 11:18:03;;;;;;;15.43;4.97;;;19.30;99.90;;;;;;5098965;27;20049;-72
2023/12/24 11:21:07;;;;;;;30.77;6.80;;;;;;;;;;5051052;28;20040;-73
2023/12/24 11:24:12;;;;;;;18.60;5.45;;;;;;;;;;5051364;28;20401;-72
2023/12/24 11:27:16;;;;;;;26.38;5.65;;;;;;;;;;5050794;28;20051;-72
2023/12/24 11:30:21;;;;;;;14.93;4.60;;;;;;;;;;5051007;28;20041;-72
2023/12/24 11:33:31;;;;;;;16.35;4.85;;;17.30;98.80;;;;;;5050859;28;20040;-72
2023/12/24 11:36:35;;;;;;;11.73;3.38;;;;;;;;;;5098717;27;20040;-71
2023/12/24 11:40:07;;;;;;;14.32;4.10;;;16.40;98.50;;;;;;5098360;27;20050;-72
2023/12/24 11:43:17;;;;;;;14.35;3.67;;;16.90;98.40;;;;;;5051004;28;20052;-72
2023/12/24 11:46:23;;;;;;;23.23;4.60;;;;;;;;;;5050912;28;20048;-71
2023/12/24 11:49:27;;;;;;;17.08;4.35;;;;;;;;;;5050743;28;20048;-72
2023/12/24 11:52:31;;;;;;;25.35;5.53;;;;;;;;;;5050874;28;20040;-72
2023/12/24 11:55:36;;;;;;;16.67;4.80;;;;;;;;;;5050794;28;20043;-72
2023/12/24 11:58:41;;;;;;;22.33;5.13;;;;;;;;;;5098222;27;20052;-73
2023/12/24 12:01:45;;;;;;;19.75;5.25;;;;;;;;;;5050653;28;20618;-72
2023/12/24 12:04:50;;;;;;;19.15;5.53;;;;;;;;;;5049288;28;20029;-71
2023/12/24 12:07:54;;;;;;;14.57;4.85;;;;;;;;;;5050414;28;20029;-72
2023/12/24 12:10:59;;;;;;;17.98;4.78;;;;;;;;;;5050167;28;20045;-72
2023/12/24 12:14:03;;;;;;;12.43;4.68;;;;;;;;;;5050621;28;20068;-73
2023/12/24 12:17:10;;;;;;;17.85;4.97;;;;;;;;;;5049914;28;20053;-72
2023/12/24 12:20:14;;;;;;;21.00;6.00;;;;;;;;;;5050342;28;20033;-72
2023/12/24 12:23:19;;;;;;;30.83;9.23;;;;;;;;;;5050227;28;20351;-73
2023/12/24 12:26:23;;;;;;;14.18;5.55;;;;;;;;;;5100305;27;20048;-72
2023/12/24 12:29:28;;;;;;;20.10;6.13;;;;;;;;;;5061808;28;20045;-71
2023/12/24 12:32:32;;;;;;;23.60;5.88;;;;;;;;;;5101136;27;20048;-72
2023/12/24 12:35:36;;;;;;;25.05;5.65;;;;;;;;;;5053601;28;20033;-71
2023/12/24 12:38:41;;;;;;;16.80;5.47;;;;;;;;;;5054426;28;20045;-71
2023/12/24 12:41:45;;;;;;;24.20;6.10;;;;;;;;;;5106044;27;20029;-70
2023/12/24 12:44:50;;;;;;;16.17;5.78;;;;;;;;;;5054777;28;20036;-71
2023/12/24 12:47:54;;;;;;;20.73;7.03;;;;;;;;;;5050691;28;20476;-71
2023/12/24 12:50:59;;;;;;;18.65;6.13;;;;;;;;;;5097607;27;20049;-72
2023/12/24 12:54:07;;;;;;;13.57;5.80;;;;;;;;;;5050232;28;20503;-72
2023/12/24 12:57:11;;;;;;;24.45;6.25;;;;;;;;;;5050100;28;20041;-71
2023/12/24 13:00:23;;;;;;;25.13;5.55;;;16.50;97.80;;;;;;5049632;28;20183;-72
2023/12/24 13:03:28;;;;;;;16.95;5.18;;;;;;;;;;5050370;28;20047;-72
2023/12/24 13:06:32;;;;;;;24.15;6.53;;;;;;;;;;5049960;28;20045;-72
2023/12/24 13:09:47;;;;;;;22.00;5.55;;;15.80;97.70;;;;;;5097273;27;20029;-72
2023/12/24 13:13:11;;;;;;;22.67;6.07;;;14.00;97.40;;;;;;5049849;28;20072;-72
2023/12/24 13:16:15;;;;;;;13.93;4.75;;;;;;;;;;5048682;28;20044;-71
2023/12/24 13:19:22;;;;;;;19.40;6.18;;;;;;;;;;5049330;28;20041;-71
2023/12/24 13:22:26;;;;;;;17.52;5.55;;;;;;;;;;5049744;28;20037;-71
2023/12/24 13:25:30;;;;;;;21.63;5.70;;;;;;;;;;5049106;28;20040;-71
2023/12/24 13:28:35;;;;;;;28.52;7.32;;;;;;;;;;5049345;28;20029;-71
2023/12/24 13:31:39;;;;;;;20.67;6.45;;;;;;;;;;5073280;28;20048;-73
2023/12/24 13:34:44;;;;;;;24.17;6.63;;;;;;;;;;5049277;28;20036;-71
2023/12/24 13:37:48;;;;;;;23.42;5.70;;;;;;;;;;5049075;28;20045;-71
2023/12/24 13:40:52;;;;;;;27.67;5.30;;;;;;;;;;5048729;28;20369;-72
2023/12/24 13:43:56;;;;;;;18.75;4.95;;;;;;;;;;5049416;28;20041;-71
2023/12/24 13:47:01;;;;;;;17.45;4.82;;;;;;;;;;5096665;27;20044;-72
2023/12/24 13:50:05;;;;;;;23.45;6.00;;;;;;;;;;5048963;28;20044;-72
2023/12/24 13:53:09;;;;;;;21.02;5.82;;;;;;;;;;5048916;28;20037;-72
2023/12/24 13:56:14;;;;;;;43.65;8.77;;;;;;;;;;5049099;28;20045;-71
2023/12/24 13:59:18;;;;;;;23.52;6.72;;;;;;;;;;5084704;28;20055;-71
2023/12/24 14:02:23;;;;;;;21.52;5.75;;;;;;;;;;5096016;27;20040;-71
2023/12/24 14:05:27;;;;;;;26.15;6.40;;;;;;;;;;5048993;28;20037;-71
2023/12/24 14:08:32;;;;;;;22.20;6.32;;;;;;;;;;5048955;28;20500;-71
2023/12/24 14:11:38;;;;;;;27.90;9.23;;;;;;;;;;5048870;28;20041;-71
2023/12/24 14:14:42;;;;;;;24.20;7.60;;;;;;;;;;5048391;28;20033;-71
2023/12/24 14:17:47;;;;;;;23.33;8.10;;;;;;;;;;5048056;28;20052;-72
2023/12/24 14:20:51;;;;;;;20.23;7.75;;;;;;;;;;5095941;27;20040;-71
2023/12/24 14:23:55;;;;;;;19.48;6.15;;;;;;;;;;5048517;28;20041;-72
2023/12/24 14:27:00;;;;;;;20.58;6.50;;;;;;;;;;5048251;28;20048;-71
2023/12/24 14:30:12;;;;;;;31.73;8.60;;;;;;;;;;5095715;27;20037;-71
2023/12/24 14:33:16;;;;;;;24.13;7.05;;;;;;;;;;5048631;28;20037;-71
2023/12/24 14:36:23;;;;;;;22.48;7.03;;;;;;;;;;5094948;28;20033;-72
2023/12/24 14:39:29;;;;;;;29.33;7.38;;;;;;;;;;5048245;28;20530;-72
2023/12/24 14:42:34;;;;;;;22.05;6.47;;;;;;;;;;5049776;28;20040;-72
2023/12/24 14:45:41;;;;;;;33.03;8.02;;;;;;;;;;5096142;28;20043;-71
2023/12/24 14:48:46;;;;;;;18.80;6.15;;;;;;;;;;5049076;28;20052;-71
2023/12/24 14:51:51;;;;;;;23.50;7.15;;;;;;;;;;5048377;28;20393;-72
2023/12/24 14:54:56;;;;;;;30.50;6.63;;;;;;;;;;5084313;28;20041;-71
2023/12/24 14:58:00;;;;;;;20.42;7.05;;;;;;;;;;5047954;28;20049;-71
2023/12/24 15:01:04;;;;;;;24.85;8.20;;;;;;;;;;5095320;28;20037;-71
2023/12/24 15:04:09;;;;;;;24.02;7.90;;;;;;;;;;5048002;28;20049;-72
2023/12/24 15:07:13;;;;;;;36.80;8.15;;;;;;;;;;5048330;28;20044;-71
2023/12/24 15:10:17;;;;;;;23.20;7.90;;;;;;;;;;5047841;28;20040;-71
2023/12/24 15:13:21;;;;;;;30.40;12.15;;;;;;;;;;5047924;28;20037;-71
2023/12/24 15:16:26;;;;;;;28.25;11.90;;;;;;;;;;5094631;28;20121;-72
2023/12/24 15:19:30;;;;;;;37.25;13.82;;;;;;;;;;5095351;28;20044;-72
2023/12/24 15:22:35;;;;;;;36.42;11.55;;;;;;;;;;5047841;28;20036;-72
2023/12/24 15:25:39;;;;;;;31.40;10.60;;;;;;;;;;5047484;28;20072;-71
2023/12/24 15:28:43;;;;;;;31.42;10.90;;;;;;;;;;5047532;28;20048;-71
2023/12/24 15:31:48;;;;;;;33.58;11.35;;;;;;;;;;5083520;28;20048;-72
2023/12/24 15:34:52;;;;;;;40.42;12.18;;;;;;;;;;5047826;28;20040;-72
2023/12/24 15:37:57;;;;;;;36.70;13.10;;;;;;;;;;5047378;28;20503;-72
2023/12/24 15:41:00;;;;;;;37.97;11.32;;;;;;;;;;5098984;27;20044;-71
2023/12/24 15:44:05;;;;;;;29.70;11.88;;;;;;;;;;5098804;27;20385;-72
2023/12/24 15:47:11;;;;;;;38.42;12.20;;;;;;;;;;5050876;28;20044;-71
2023/12/24 15:50:15;;;;;;;40.53;13.00;;;;;;;;;;5050837;28;20048;-72
2023/12/24 15:53:20;;;;;;;47.58;17.52;;;;;;;;;;5050569;28;20048;-72
2023/12/24 15:56:24;;;;;;;52.42;22.25;;;;;;;;;;5050531;28;20048;-72
2023/12/24 15:59:28;;;;;;;56.40;25.70;;;;;;;;;;5050361;28;20415;-72
2023/12/24 16:02:33;;;;;;;59.28;25.45;;;;;;;;;;5050633;28;20044;-72
2023/12/24 16:05:37;;;;;;;51.60;22.88;;;;;;;;;;5050778;28;20048;-71
2023/12/24 16:08:41;;;;;;;51.05;20.15;;;;;;;;;;5050492;28;20036;-72
2023/12/24 16:11:46;;;;;;;47.88;17.63;;;;;;;;;;5098332;27;20048;-71
2023/12/24 16:14:50;;;;;;;30.95;14.85;;;16.20;99.10;;;;;;5098246;27;20044;-72
2023/12/24 16:17:55;;;;;;;39.97;14.82;;;;;;;;;;5050039;28;20056;-71
2023/12/24 16:20:59;;;;;;;43.92;14.35;;;;;;;;;;5050360;28;20050;-72
2023/12/24 16:24:03;;;;;;;42.45;16.05;;;;;;;;;;5050492;28;20070;-71
2023/12/24 16:27:08;;;;;;;48.53;18.52;;;;;;;;;;5097636;27;20495;-71
2023/12/24 16:30:12;;;;;;;50.00;20.63;;;;;;;;;;5050344;28;20052;-72
2023/12/24 16:33:16;;;;;;;45.47;20.95;;;;;;;;;;5050147;28;20063;-71
2023/12/24 16:36:24;;;;;;;43.85;18.10;;;;;;;;;;5050345;28;20416;-71
2023/12/24 16:39:28;;;;;;;40.05;17.33;;;;;;;;;;5050225;28;20060;-72
2023/12/24 16:42:33;;;;;;;50.85;20.52;;;;;;;;;;5050016;28;20059;-72
2023/12/24 16:45:37;;;;;;;53.72;24.02;;;;;;;;;;5050265;28;20044;-72
2023/12/24 16:48:42;;;;;;;48.38;24.15;;;;;;;;;;5050213;28;20043;-71
2023/12/24 16:51:47;;;;;;;56.47;23.48;;;;;;;;;;5049268;28;20503;-71
2023/12/24 16:54:51;;;;;;;51.72;21.88;;;;;;;;;;5049873;28;20060;-71
2023/12/24 16:57:55;;;;;;;50.45;21.27;;;;;;;;;;5049383;28;20052;-71
2023/12/24 17:00:59;;;;;;;55.63;20.45;;;;;;;;;;5097416;27;20051;-72
2023/12/24 17:04:04;;;;;;;44.78;19.92;;;15.40;98.90;;;;;;5049366;28;20048;-71
2023/12/24 17:07:08;;;;;;;48.67;24.10;;;;;;;;;;5049501;28;20423;-71
2023/12/24 17:10:13;;;;;;;48.03;20.65;;;;;;;;;;5097354;27;20051;-71
2023/12/24 17:13:17;;;;;;;47.95;21.40;;;;;;;;;;5097261;27;20503;-72
2023/12/24 17:16:21;;;;;;;44.72;20.45;;;;;;;;;;5085204;28;20485;-72
2023/12/24 17:19:26;;;;;;;40.25;17.67;;;;;;;;;;5049311;28;20056;-72
2023/12/24 17:22:30;;;;;;;45.38;20.67;;;;;;;;;;5049859;28;20044;-73
2023/12/24 17:25:34;;;;;;;51.65;20.40;;;;;;;;;;5096140;27;20044;-71
2023/12/24 17:28:38;;;;;;;50.33;20.20;;;;;;;;;;5049471;28;20048;-72
2023/12/24 17:31:42;;;;;;;41.85;18.38;;;;;;;;;;5049601;28;20048;-71
2023/12/24 17:34:49;;;;;;;48.35;17.15;;;;;;;;;;5049255;28;20047;-71
2023/12/24 17:37:54;;;;;;;46.47;19.23;;;;;;;;;;5049288;28;20044;-71
2023/12/24 17:40:58;;;;;;;44.40;18.05;;;;;;;;;;5096597;27;20499;-71
2023/12/24 17:44:02;;;;;;;39.22;14.75;;;;;;;;;;5049069;28;20036;-70
2023/12/24 17:47:07;;;;;;;45.42;18.02;;;;;;;;;;5049127;28;20491;-71
2023/12/24 17:50:12;;;;;;;47.00;22.90;;;;;;;;;;5048693;28;20048;-71
2023/12/24 17:53:19;;;;;;;53.30;23.40;;;;;;;;;;5048690;28;20052;-70